sensor_id;sensor_type;location;lat;lon;timestamp;temperature;humidity
14317;DHT22;7242;50.858;6.586;2022-08-19T00:06:51;19.50;99.90
14317;DHT22;7242;50.858;6.586;2022-08-19T00:15:56;19.30;99.90
14317;DHT22;7242;50.858;6.586;2022-08-19T00:18:59;19.30;99.90
14317;DHT22;7242;50.858;6.586;2022-08-19T00:25:01;19.30;99.90
14317;DHT22;7242;50.858;6.586;2022-08-19T00:28:02;19.40;99.90
14317;DHT22;7242;50.858;6.586;2022-08-19T00:31:04;19.40;99.90
14317;DHT22;7242;50.858;6.586;2022-08-19T00:34:05;19.30;99.90
14317;DHT22;7242;50.858;6.586;2022-08-19T00:37:06;19.30;99.90
14317;DHT22;7242;50.858;6.586;2022-08-19T00:43:10;19.40;99.90
14317;DHT22;7242;50.858;6.586;2022-08-19T00:46:13;19.40;99.90
14317;DHT22;7242;50.858;6.586;2022-08-19T00:49:27;19.40;99.90
14317;DHT22;7242;50.858;6.586;2022-08-19T00:52:33;19.40;99.90
14317;DHT22;7242;50.858;6.586;2022-08-19T00:55:35;19.40;99.90
14317;DHT22;7242;50.858;6.586;2022-08-19T00:58:36;19.50;99.90
14317;DHT22;7242;50.858;6.586;2022-08-19T01:01:41;19.40;99.90
14317;DHT22;7242;50.858;6.586;2022-08-19T01:10:48;19.30;99.90
14317;DHT22;7242;50.858;6.586;2022-08-19T01:13:50;19.30;99.90
14317;DHT22;7242;50.858;6.586;2022-08-19T01:16:54;19.40;99.90
14317;DHT22;7242;50.858;6.586;2022-08-19T01:19:55;19.40;99.90
14317;DHT22;7242;50.858;6.586;2022-08-19T01:22:58;19.40;99.90
14317;DHT22;7242;50.858;6.586;2022-08-19T01:25:59;19.50;99.90
14317;DHT22;7242;50.858;6.586;2022-08-19T01:35:03;19.50;99.90
14317;DHT22;7242;50.858;6.586;2022-08-19T01:38:07;19.50;99.90
14317;DHT22;7242;50.858;6.586;2022-08-19T01:41:10;19.50;99.90
14317;DHT22;7242;50.858;6.586;2022-08-19T01:44:11;19.30;99.90
14317;DHT22;7242;50.858;6.586;2022-08-19T01:50:14;19.00;99.90
14317;DHT22;7242;50.858;6.586;2022-08-19T01:56:17;18.80;99.90
14317;DHT22;7242;50.858;6.586;2022-08-19T01:59:21;18.80;99.90
14317;DHT22;7242;50.858;6.586;2022-08-19T02:05:24;18.80;99.90
14317;DHT22;7242;50.858;6.586;2022-08-19T02:08:29;18.80;99.90
14317;DHT22;7242;50.858;6.586;2022-08-19T02:11:33;18.80;99.90
14317;DHT22;7242;50.858;6.586;2022-08-19T02:14:35;18.80;99.90
14317;DHT22;7242;50.858;6.586;2022-08-19T02:17:36;18.90;99.90
14317;DHT22;7242;50.858;6.586;2022-08-19T02:20:37;18.90;99.90
14317;DHT22;7242;50.858;6.586;2022-08-19T02:23:38;18.90;99.90
14317;DHT22;7242;50.858;6.586;2022-08-19T02:26:39;19.00;99.90
14317;DHT22;7242;50.858;6.586;2022-08-19T02:32:43;18.90;99.90
14317;DHT22;7242;50.858;6.586;2022-08-19T02:35:45;19.00;99.90
14317;DHT22;7242;50.858;6.586;2022-08-19T02:38:46;19.00;99.90
14317;DHT22;7242;50.858;6.586;2022-08-19T02:41:47;19.10;99.90
14317;DHT22;7242;50.858;6.586;2022-08-19T02:44:50;19.20;99.90
14317;DHT22;7242;50.858;6.586;2022-08-19T02:50:53;19.40;99.90
14317;DHT22;7242;50.858;6.586;2022-08-19T02:59:59;19.30;99.90
14317;DHT22;7242;50.858;6.586;2022-08-19T03:06:11;19.30;99.90
14317;DHT22;7242;50.858;6.586;2022-08-19T03:09:14;19.30;99.90
14317;DHT22;7242;50.858;6.586;2022-08-19T03:12:15;19.30;99.90
14317;DHT22;7242;50.858;6.586;2022-08-19T03:15:15;19.30;99.90
14317;DHT22;7242;50.858;6.586;2022-08-19T03:18:16;19.40;99.90
14317;DHT22;7242;50.858;6.586;2022-08-19T03:21:19;19.40;99.90
14317;DHT22;7242;50.858;6.586;2022-08-19T03:24:20;19.20;99.90
14317;DHT22;7242;50.858;6.586;2022-08-19T03:27:21;19.10;99.90
14317;DHT22;7242;50.858;6.586;2022-08-19T03:33:24;19.10;99.90
14317;DHT22;7242;50.858;6.586;2022-08-19T03:36:26;19.10;99.90
14317;DHT22;7242;50.858;6.586;2022-08-19T03:39:28;19.10;99.90
14317;DHT22;7242;50.858;6.586;2022-08-19T03:42:28;19.10;99.90
14317;DHT22;7242;50.858;6.586;2022-08-19T03:45:29;19.20;99.90
14317;DHT22;7242;50.858;6.586;2022-08-19T03:48:31;19.20;99.90
14317;DHT22;7242;50.858;6.586;2022-08-19T03:51:35;19.20;99.90
14317;DHT22;7242;50.858;6.586;2022-08-19T03:54:36;19.20;99.90
14317;DHT22;7242;50.858;6.586;2022-08-19T03:57:38;19.20;99.90
14317;DHT22;7242;50.858;6.586;2022-08-19T04:00:42;19.10;99.90
14317;DHT22;7242;50.858;6.586;2022-08-19T04:03:44;19.10;99.90
14317;DHT22;7242;50.858;6.586;2022-08-19T04:06:46;19.10;99.90
14317;DHT22;7242;50.858;6.586;2022-08-19T04:09:48;19.10;99.90
14317;DHT22;7242;50.858;6.586;2022-08-19T04:12:49;19.10;99.90
14317;DHT22;7242;50.858;6.586;2022-08-19T04:18:51;19.20;99.90
14317;DHT22;7242;50.858;6.586;2022-08-19T04:24:53;19.30;99.90
14317;DHT22;7242;50.858;6.586;2022-08-19T04:27:54;19.20;99.90
14317;DHT22;7242;50.858;6.586;2022-08-19T04:30:55;19.10;99.90
14317;DHT22;7242;50.858;6.586;2022-08-19T04:33:57;19.10;99.90
14317;DHT22;7242;50.858;6.586;2022-08-19T04:36:59;19.00;99.90
14317;DHT22;7242;50.858;6.586;2022-08-19T04:40:00;18.90;99.90
14317;DHT22;7242;50.858;6.586;2022-08-19T04:43:19;19.00;99.90
14317;DHT22;7242;50.858;6.586;2022-08-19T04:49:22;19.20;99.90
14317;DHT22;7242;50.858;6.586;2022-08-19T04:52:23;19.20;99.90
14317;DHT22;7242;50.858;6.586;2022-08-19T04:55:24;19.30;99.90
14317;DHT22;7242;50.858;6.586;2022-08-19T04:58:28;19.30;99.90
14317;DHT22;7242;50.858;6.586;2022-08-19T05:01:29;19.40;99.90
14317;DHT22;7242;50.858;6.586;2022-08-19T05:07:34;19.30;99.90
14317;DHT22;7242;50.858;6.586;2022-08-19T05:10:36;19.30;99.90
14317;DHT22;7242;50.858;6.586;2022-08-19T05:16:39;19.10;99.90
14317;DHT22;7242;50.858;6.586;2022-08-19T05:19:41;19.10;99.90
14317;DHT22;7242;50.858;6.586;2022-08-19T05:23:00;19.20;99.90
14317;DHT22;7242;50.858;6.586;2022-08-19T05:32:05;19.40;99.90
14317;DHT22;7242;50.858;6.586;2022-08-19T05:35:09;19.50;99.90
14317;DHT22;7242;50.858;6.586;2022-08-19T05:38:11;19.50;99.90
14317;DHT22;7242;50.858;6.586;2022-08-19T05:41:14;19.50;99.90
14317;DHT22;7242;50.858;6.586;2022-08-19T05:47:18;19.60;99.90
14317;DHT22;7242;50.858;6.586;2022-08-19T05:50:20;19.60;99.90
14317;DHT22;7242;50.858;6.586;2022-08-19T05:53:21;19.70;99.90
14317;DHT22;7242;50.858;6.586;2022-08-19T05:56:22;19.80;99.90
14317;DHT22;7242;50.858;6.586;2022-08-19T05:59:23;19.80;99.90
14317;DHT22;7242;50.858;6.586;2022-08-19T06:05:25;19.90;99.90
14317;DHT22;7242;50.858;6.586;2022-08-19T06:08:26;20.10;99.90
14317;DHT22;7242;50.858;6.586;2022-08-19T06:14:35;20.10;99.90
14317;DHT22;7242;50.858;6.586;2022-08-19T06:17:36;20.20;99.90
14317;DHT22;7242;50.858;6.586;2022-08-19T06:20:37;20.30;99.90
14317;DHT22;7242;50.858;6.586;2022-08-19T06:26:42;20.30;99.90
14317;DHT22;7242;50.858;6.586;2022-08-19T06:29:43;20.30;99.90
14317;DHT22;7242;50.858;6.586;2022-08-19T06:32:44;20.30;99.90
14317;DHT22;7242;50.858;6.586;2022-08-19T06:38:45;20.60;99.90
14317;DHT22;7242;50.858;6.586;2022-08-19T06:41:48;20.70;99.90
14317;DHT22;7242;50.858;6.586;2022-08-19T06:47:52;20.80;99.90
14317;DHT22;7242;50.858;6.586;2022-08-19T06:50:56;20.90;99.90
14317;DHT22;7242;50.858;6.586;2022-08-19T06:53:57;21.00;99.90
14317;DHT22;7242;50.858;6.586;2022-08-19T06:56:59;21.10;99.90
14317;DHT22;7242;50.858;6.586;2022-08-19T07:00:05;21.20;99.90
14317;DHT22;7242;50.858;6.586;2022-08-19T07:03:10;21.30;99.90
14317;DHT22;7242;50.858;6.586;2022-08-19T07:06:15;21.50;99.90
14317;DHT22;7242;50.858;6.586;2022-08-19T07:09:18;21.70;99.90
14317;DHT22;7242;50.858;6.586;2022-08-19T07:15:20;21.60;99.90
14317;DHT22;7242;50.858;6.586;2022-08-19T07:21:26;21.50;99.90
14317;DHT22;7242;50.858;6.586;2022-08-19T07:24:29;21.60;99.90
14317;DHT22;7242;50.858;6.586;2022-08-19T07:27:30;21.70;99.90
14317;DHT22;7242;50.858;6.586;2022-08-19T07:33:32;22.60;99.90
14317;DHT22;7242;50.858;6.586;2022-08-19T07:36:36;22.90;99.90
14317;DHT22;7242;50.858;6.586;2022-08-19T07:39:38;23.40;99.90
14317;DHT22;7242;50.858;6.586;2022-08-19T07:42:39;23.70;99.90
14317;DHT22;7242;50.858;6.586;2022-08-19T07:45:39;23.80;99.90
14317;DHT22;7242;50.858;6.586;2022-08-19T07:48:43;24.00;99.90
14317;DHT22;7242;50.858;6.586;2022-08-19T07:51:49;24.20;99.90
14317;DHT22;7242;50.858;6.586;2022-08-19T07:57:51;24.50;99.90
14317;DHT22;7242;50.858;6.586;2022-08-19T08:00:54;24.70;99.90
14317;DHT22;7242;50.858;6.586;2022-08-19T08:03:57;25.30;99.90
14317;DHT22;7242;50.858;6.586;2022-08-19T08:13:38;27.20;99.90
14317;DHT22;7242;50.858;6.586;2022-08-19T08:19:40;29.00;99.90
14317;DHT22;7242;50.858;6.586;2022-08-19T08:22:45;29.30;99.90
14317;DHT22;7242;50.858;6.586;2022-08-19T08:29:07;28.80;99.90
14317;DHT22;7242;50.858;6.586;2022-08-19T08:32:11;28.80;99.90
14317;DHT22;7242;50.858;6.586;2022-08-19T08:35:15;28.60;99.90
14317;DHT22;7242;50.858;6.586;2022-08-19T08:38:16;28.40;99.90
14317;DHT22;7242;50.858;6.586;2022-08-19T08:45:18;27.30;99.90
14317;DHT22;7242;50.858;6.586;2022-08-19T08:48:35;27.10;99.90
14317;DHT22;7242;50.858;6.586;2022-08-19T08:51:41;27.10;99.90
14317;DHT22;7242;50.858;6.586;2022-08-19T08:54:46;27.00;99.90
14317;DHT22;7242;50.858;6.586;2022-08-19T09:00:51;26.60;99.90
14317;DHT22;7242;50.858;6.586;2022-08-19T09:03:52;26.60;99.90
14317;DHT22;7242;50.858;6.586;2022-08-19T09:16:45;26.20;99.90
14317;DHT22;7242;50.858;6.586;2022-08-19T09:20:00;26.00;99.90
14317;DHT22;7242;50.858;6.586;2022-08-19T09:23:08;26.00;99.90
14317;DHT22;7242;50.858;6.586;2022-08-19T09:26:14;25.90;99.90
14317;DHT22;7242;50.858;6.586;2022-08-19T09:29:15;25.90;99.90
14317;DHT22;7242;50.858;6.586;2022-08-19T09:32:16;25.90;99.90
14317;DHT22;7242;50.858;6.586;2022-08-19T09:35:22;26.00;99.90
14317;DHT22;7242;50.858;6.586;2022-08-19T09:38:23;25.80;99.90
14317;DHT22;7242;50.858;6.586;2022-08-19T09:41:24;25.80;99.90
14317;DHT22;7242;50.858;6.586;2022-08-19T09:44:25;25.80;99.90
14317;DHT22;7242;50.858;6.586;2022-08-19T09:47:26;25.90;99.90
14317;DHT22;7242;50.858;6.586;2022-08-19T09:53:27;26.30;99.90
14317;DHT22;7242;50.858;6.586;2022-08-19T09:56:29;26.30;99.90
14317;DHT22;7242;50.858;6.586;2022-08-19T09:59:30;26.30;99.90
14317;DHT22;7242;50.858;6.586;2022-08-19T10:02:31;26.50;99.90
14317;DHT22;7242;50.858;6.586;2022-08-19T10:05:32;26.60;99.90
14317;DHT22;7242;50.858;6.586;2022-08-19T10:08:51;26.70;99.90
14317;DHT22;7242;50.858;6.586;2022-08-19T10:11:52;26.90;99.90
14317;DHT22;7242;50.858;6.586;2022-08-19T10:14:53;26.70;99.90
14317;DHT22;7242;50.858;6.586;2022-08-19T10:17:54;26.80;99.90
14317;DHT22;7242;50.858;6.586;2022-08-19T10:21:04;26.70;99.90
14317;DHT22;7242;50.858;6.586;2022-08-19T10:27:09;26.40;99.90
14317;DHT22;7242;50.858;6.586;2022-08-19T10:33:11;26.50;99.90
14317;DHT22;7242;50.858;6.586;2022-08-19T10:36:15;26.40;99.90
14317;DHT22;7242;50.858;6.586;2022-08-19T10:39:15;26.50;99.90
14317;DHT22;7242;50.858;6.586;2022-08-19T10:45:19;26.80;99.90
14317;DHT22;7242;50.858;6.586;2022-08-19T10:48:22;26.60;99.90
14317;DHT22;7242;50.858;6.586;2022-08-19T10:54:43;26.50;99.90
14317;DHT22;7242;50.858;6.586;2022-08-19T10:58:02;26.50;99.90
14317;DHT22;7242;50.858;6.586;2022-08-19T11:04:04;26.30;99.90
14317;DHT22;7242;50.858;6.586;2022-08-19T11:07:06;26.30;99.90
14317;DHT22;7242;50.858;6.586;2022-08-19T11:10:09;26.20;99.90
14317;DHT22;7242;50.858;6.586;2022-08-19T11:13:10;25.90;99.90
14317;DHT22;7242;50.858;6.586;2022-08-19T11:16:17;25.80;99.90
14317;DHT22;7242;50.858;6.586;2022-08-19T11:19:19;25.80;99.90
14317;DHT22;7242;50.858;6.586;2022-08-19T11:22:19;25.70;99.90
14317;DHT22;7242;50.858;6.586;2022-08-19T11:28:22;25.90;99.90
14317;DHT22;7242;50.858;6.586;2022-08-19T11:31:25;25.90;99.90
14317;DHT22;7242;50.858;6.586;2022-08-19T11:34:27;25.90;99.90
14317;DHT22;7242;50.858;6.586;2022-08-19T11:37:28;26.10;99.90
14317;DHT22;7242;50.858;6.586;2022-08-19T11:40:29;26.20;99.90
14317;DHT22;7242;50.858;6.586;2022-08-19T11:43:30;26.40;99.90
14317;DHT22;7242;50.858;6.586;2022-08-19T11:49:32;26.60;99.90
14317;DHT22;7242;50.858;6.586;2022-08-19T11:52:36;26.60;99.90
14317;DHT22;7242;50.858;6.586;2022-08-19T11:55:38;26.50;99.90
14317;DHT22;7242;50.858;6.586;2022-08-19T12:07:44;26.80;99.90
14317;DHT22;7242;50.858;6.586;2022-08-19T12:13:47;26.70;99.90
14317;DHT22;7242;50.858;6.586;2022-08-19T12:16:48;26.90;99.90
14317;DHT22;7242;50.858;6.586;2022-08-19T12:22:50;27.00;99.90
14317;DHT22;7242;50.858;6.586;2022-08-19T12:25:51;27.10;99.90
14317;DHT22;7242;50.858;6.586;2022-08-19T12:28:52;27.00;99.90
14317;DHT22;7242;50.858;6.586;2022-08-19T12:31:54;27.00;99.90
14317;DHT22;7242;50.858;6.586;2022-08-19T12:35:00;27.00;99.90
14317;DHT22;7242;50.858;6.586;2022-08-19T12:41:04;27.00;99.90
14317;DHT22;7242;50.858;6.586;2022-08-19T12:44:06;27.00;99.90
14317;DHT22;7242;50.858;6.586;2022-08-19T12:47:09;27.00;99.90
14317;DHT22;7242;50.858;6.586;2022-08-19T12:53:12;27.00;99.90
14317;DHT22;7242;50.858;6.586;2022-08-19T12:56:14;27.00;99.90
14317;DHT22;7242;50.858;6.586;2022-08-19T12:59:15;26.80;99.90
14317;DHT22;7242;50.858;6.586;2022-08-19T13:02:17;27.00;99.90
14317;DHT22;7242;50.858;6.586;2022-08-19T13:05:25;27.10;99.90
14317;DHT22;7242;50.858;6.586;2022-08-19T13:11:27;27.20;99.90
14317;DHT22;7242;50.858;6.586;2022-08-19T13:14:36;27.20;99.90
14317;DHT22;7242;50.858;6.586;2022-08-19T13:17:37;27.20;99.90
14317;DHT22;7242;50.858;6.586;2022-08-19T13:20:39;27.30;99.90
14317;DHT22;7242;50.858;6.586;2022-08-19T13:33:05;27.20;99.90
14317;DHT22;7242;50.858;6.586;2022-08-19T13:36:14;27.20;99.90
14317;DHT22;7242;50.858;6.586;2022-08-19T13:39:15;27.30;99.90
14317;DHT22;7242;50.858;6.586;2022-08-19T13:45:22;27.40;99.90
14317;DHT22;7242;50.858;6.586;2022-08-19T13:48:27;27.50;99.90
14317;DHT22;7242;50.858;6.586;2022-08-19T13:51:27;27.60;99.90
14317;DHT22;7242;50.858;6.586;2022-08-19T13:57:30;27.70;99.90
14317;DHT22;7242;50.858;6.586;2022-08-19T14:00:36;27.80;99.90
14317;DHT22;7242;50.858;6.586;2022-08-19T14:03:37;27.80;99.90
14317;DHT22;7242;50.858;6.586;2022-08-19T14:06:38;27.70;99.90
14317;DHT22;7242;50.858;6.586;2022-08-19T14:12:40;27.80;99.90
14317;DHT22;7242;50.858;6.586;2022-08-19T14:18:43;27.70;99.90
14317;DHT22;7242;50.858;6.586;2022-08-19T14:21:45;27.70;99.90
14317;DHT22;7242;50.858;6.586;2022-08-19T14:27:55;27.80;99.90
14317;DHT22;7242;50.858;6.586;2022-08-19T14:30:59;27.70;99.90
14317;DHT22;7242;50.858;6.586;2022-08-19T14:37:01;27.60;99.90
14317;DHT22;7242;50.858;6.586;2022-08-19T14:43:04;27.70;99.90
14317;DHT22;7242;50.858;6.586;2022-08-19T14:46:05;27.80;99.90
14317;DHT22;7242;50.858;6.586;2022-08-19T14:52:08;28.30;99.90
14317;DHT22;7242;50.858;6.586;2022-08-19T14:58:10;28.60;99.90
14317;DHT22;7242;50.858;6.586;2022-08-19T15:01:12;28.40;99.90
14317;DHT22;7242;50.858;6.586;2022-08-19T15:04:13;28.40;99.90
14317;DHT22;7242;50.858;6.586;2022-08-19T15:07:13;28.40;99.90
14317;DHT22;7242;50.858;6.586;2022-08-19T15:10:15;28.30;99.90
14317;DHT22;7242;50.858;6.586;2022-08-19T15:16:17;27.80;99.90
14317;DHT22;7242;50.858;6.586;2022-08-19T15:19:18;27.70;99.90
14317;DHT22;7242;50.858;6.586;2022-08-19T15:22:19;27.70;99.90
14317;DHT22;7242;50.858;6.586;2022-08-19T15:25:20;27.50;99.90
14317;DHT22;7242;50.858;6.586;2022-08-19T15:28:22;27.40;99.90
14317;DHT22;7242;50.858;6.586;2022-08-19T15:31:23;27.30;99.90
14317;DHT22;7242;50.858;6.586;2022-08-19T15:34:25;27.20;99.90
14317;DHT22;7242;50.858;6.586;2022-08-19T15:37:25;27.30;99.90
14317;DHT22;7242;50.858;6.586;2022-08-19T15:40:26;27.30;99.90
14317;DHT22;7242;50.858;6.586;2022-08-19T15:46:32;27.20;99.90
14317;DHT22;7242;50.858;6.586;2022-08-19T15:55:41;27.10;99.90
14317;DHT22;7242;50.858;6.586;2022-08-19T15:58:43;27.10;99.90
14317;DHT22;7242;50.858;6.586;2022-08-19T16:02:02;27.00;99.90
14317;DHT22;7242;50.858;6.586;2022-08-19T16:05:24;26.80;99.90
14317;DHT22;7242;50.858;6.586;2022-08-19T16:14:46;26.60;99.90
14317;DHT22;7242;50.858;6.586;2022-08-19T16:17:48;26.50;99.90
14317;DHT22;7242;50.858;6.586;2022-08-19T16:20:49;26.60;99.90
14317;DHT22;7242;50.858;6.586;2022-08-19T16:23:50;26.60;99.90
14317;DHT22;7242;50.858;6.586;2022-08-19T16:26:52;26.60;99.90
14317;DHT22;7242;50.858;6.586;2022-08-19T16:32:54;26.40;99.90
14317;DHT22;7242;50.858;6.586;2022-08-19T16:38:56;26.10;99.90
14317;DHT22;7242;50.858;6.586;2022-08-19T16:48:00;26.10;99.90
14317;DHT22;7242;50.858;6.586;2022-08-19T16:51:01;26.10;99.90
14317;DHT22;7242;50.858;6.586;2022-08-19T16:54:09;26.10;99.90
14317;DHT22;7242;50.858;6.586;2022-08-19T17:00:11;25.90;99.90
14317;DHT22;7242;50.858;6.586;2022-08-19T17:03:13;25.90;99.90
14317;DHT22;7242;50.858;6.586;2022-08-19T17:06:16;25.80;99.90
14317;DHT22;7242;50.858;6.586;2022-08-19T17:09:17;25.80;99.90
14317;DHT22;7242;50.858;6.586;2022-08-19T17:15:19;25.80;99.90
14317;DHT22;7242;50.858;6.586;2022-08-19T17:21:28;25.70;99.90
14317;DHT22;7242;50.858;6.586;2022-08-19T17:24:29;25.80;99.90
14317;DHT22;7242;50.858;6.586;2022-08-19T17:27:29;25.60;99.90
14317;DHT22;7242;50.858;6.586;2022-08-19T17:30:30;25.60;99.90
14317;DHT22;7242;50.858;6.586;2022-08-19T17:36:32;25.60;99.90
14317;DHT22;7242;50.858;6.586;2022-08-19T17:42:44;25.60;99.90
14317;DHT22;7242;50.858;6.586;2022-08-19T17:45:45;25.60;99.90
14317;DHT22;7242;50.858;6.586;2022-08-19T17:48:48;25.60;99.90
14317;DHT22;7242;50.858;6.586;2022-08-19T17:57:53;25.50;99.90
14317;DHT22;7242;50.858;6.586;2022-08-19T18:00:54;25.50;99.90
14317;DHT22;7242;50.858;6.586;2022-08-19T18:06:56;25.40;99.90
14317;DHT22;7242;50.858;6.586;2022-08-19T18:12:58;25.30;99.90
14317;DHT22;7242;50.858;6.586;2022-08-19T18:22:01;25.10;99.90
14317;DHT22;7242;50.858;6.586;2022-08-19T18:25:09;25.00;99.90
14317;DHT22;7242;50.858;6.586;2022-08-19T18:31:12;24.90;99.90
14317;DHT22;7242;50.858;6.586;2022-08-19T18:34:13;24.90;99.90
14317;DHT22;7242;50.858;6.586;2022-08-19T18:37:14;24.80;99.90
14317;DHT22;7242;50.858;6.586;2022-08-19T18:40:19;24.80;99.90
14317;DHT22;7242;50.858;6.586;2022-08-19T18:43:39;24.70;99.90
14317;DHT22;7242;50.858;6.586;2022-08-19T18:46:58;24.60;99.90
14317;DHT22;7242;50.858;6.586;2022-08-19T18:50:18;24.50;99.90
14317;DHT22;7242;50.858;6.586;2022-08-19T18:56:19;24.50;99.90
14317;DHT22;7242;50.858;6.586;2022-08-19T18:59:27;24.40;99.90
14317;DHT22;7242;50.858;6.586;2022-08-19T19:02:28;24.40;99.90
14317;DHT22;7242;50.858;6.586;2022-08-19T19:08:36;24.30;99.90
14317;DHT22;7242;50.858;6.586;2022-08-19T19:11:42;24.20;99.90
14317;DHT22;7242;50.858;6.586;2022-08-19T19:14:43;24.00;99.90
14317;DHT22;7242;50.858;6.586;2022-08-19T19:17:44;24.00;99.90
14317;DHT22;7242;50.858;6.586;2022-08-19T19:20:45;23.90;99.90
14317;DHT22;7242;50.858;6.586;2022-08-19T19:26:48;23.60;99.90
14317;DHT22;7242;50.858;6.586;2022-08-19T19:29:50;23.50;99.90
14317;DHT22;7242;50.858;6.586;2022-08-19T19:35:55;23.20;99.90
14317;DHT22;7242;50.858;6.586;2022-08-19T19:38:56;23.10;99.90
14317;DHT22;7242;50.858;6.586;2022-08-19T19:41:56;23.10;99.90
14317;DHT22;7242;50.858;6.586;2022-08-19T19:44:57;23.10;99.90
14317;DHT22;7242;50.858;6.586;2022-08-19T19:47:58;23.00;99.90
14317;DHT22;7242;50.858;6.586;2022-08-19T19:51:00;22.80;99.90
14317;DHT22;7242;50.858;6.586;2022-08-19T19:54:01;22.80;99.90
14317;DHT22;7242;50.858;6.586;2022-08-19T19:57:03;22.90;99.90
14317;DHT22;7242;50.858;6.586;2022-08-19T20:00:05;22.90;99.90
14317;DHT22;7242;50.858;6.586;2022-08-19T20:03:08;22.90;99.90
14317;DHT22;7242;50.858;6.586;2022-08-19T20:06:11;22.80;99.90
14317;DHT22;7242;50.858;6.586;2022-08-19T20:09:14;22.80;99.90
14317;DHT22;7242;50.858;6.586;2022-08-19T20:12:15;22.60;99.90
14317;DHT22;7242;50.858;6.586;2022-08-19T20:15:16;22.50;99.90
14317;DHT22;7242;50.858;6.586;2022-08-19T20:18:17;22.40;99.90
14317;DHT22;7242;50.858;6.586;2022-08-19T20:24:23;22.40;99.90
14317;DHT22;7242;50.858;6.586;2022-08-19T20:27:25;22.40;99.90
14317;DHT22;7242;50.858;6.586;2022-08-19T20:30:27;22.40;99.90
14317;DHT22;7242;50.858;6.586;2022-08-19T20:33:28;22.40;99.90
14317;DHT22;7242;50.858;6.586;2022-08-19T20:36:30;22.30;99.90
14317;DHT22;7242;50.858;6.586;2022-08-19T20:39:31;22.20;99.90
14317;DHT22;7242;50.858;6.586;2022-08-19T20:45:33;22.10;99.90
14317;DHT22;7242;50.858;6.586;2022-08-19T20:57:41;22.20;99.90
14317;DHT22;7242;50.858;6.586;2022-08-19T21:00:43;22.20;99.90
14317;DHT22;7242;50.858;6.586;2022-08-19T21:03:45;22.20;99.90
14317;DHT22;7242;50.858;6.586;2022-08-19T21:15:49;22.00;99.90
14317;DHT22;7242;50.858;6.586;2022-08-19T21:18:50;22.00;99.90
14317;DHT22;7242;50.858;6.586;2022-08-19T21:21:51;21.90;99.90
14317;DHT22;7242;50.858;6.586;2022-08-19T21:30:55;21.90;99.90
14317;DHT22;7242;50.858;6.586;2022-08-19T21:37:14;21.90;99.90
14317;DHT22;7242;50.858;6.586;2022-08-19T21:40:15;21.90;99.90
14317;DHT22;7242;50.858;6.586;2022-08-19T21:49:18;22.00;99.90
14317;DHT22;7242;50.858;6.586;2022-08-19T21:52:21;22.00;99.90
14317;DHT22;7242;50.858;6.586;2022-08-19T21:55:22;22.00;99.90
14317;DHT22;7242;50.858;6.586;2022-08-19T21:58:23;21.90;99.90
14317;DHT22;7242;50.858;6.586;2022-08-19T22:04:25;21.90;99.90
14317;DHT22;7242;50.858;6.586;2022-08-19T22:07:25;21.90;99.90
14317;DHT22;7242;50.858;6.586;2022-08-19T22:10:29;22.00;99.90
14317;DHT22;7242;50.858;6.586;2022-08-19T22:13:33;22.00;99.90
14317;DHT22;7242;50.858;6.586;2022-08-19T22:16:37;22.00;99.90
14317;DHT22;7242;50.858;6.586;2022-08-19T22:19:38;22.00;99.90
14317;DHT22;7242;50.858;6.586;2022-08-19T22:22:46;22.00;99.90
14317;DHT22;7242;50.858;6.586;2022-08-19T22:25:48;22.00;99.90
14317;DHT22;7242;50.858;6.586;2022-08-19T22:28:49;21.90;99.90
14317;DHT22;7242;50.858;6.586;2022-08-19T22:31:49;21.80;99.90
14317;DHT22;7242;50.858;6.586;2022-08-19T22:37:51;21.80;99.90
14317;DHT22;7242;50.858;6.586;2022-08-19T22:40:52;21.80;99.90
14317;DHT22;7242;50.858;6.586;2022-08-19T22:46:54;21.90;99.90
14317;DHT22;7242;50.858;6.586;2022-08-19T22:49:55;21.80;99.90
14317;DHT22;7242;50.858;6.586;2022-08-19T22:52:58;21.60;99.90
14317;DHT22;7242;50.858;6.586;2022-08-19T22:55:59;21.70;99.90
14317;DHT22;7242;50.858;6.586;2022-08-19T23:02:03;21.70;99.90
14317;DHT22;7242;50.858;6.586;2022-08-19T23:05:07;21.70;99.90
14317;DHT22;7242;50.858;6.586;2022-08-19T23:08:08;21.70;99.90
14317;DHT22;7242;50.858;6.586;2022-08-19T23:11:09;21.70;99.90
14317;DHT22;7242;50.858;6.586;2022-08-19T23:14:12;21.70;99.90
14317;DHT22;7242;50.858;6.586;2022-08-19T23:17:12;21.70;99.90
14317;DHT22;7242;50.858;6.586;2022-08-19T23:20:14;21.50;99.90
14317;DHT22;7242;50.858;6.586;2022-08-19T23:23:16;21.40;99.90
14317;DHT22;7242;50.858;6.586;2022-08-19T23:26:19;21.30;99.90
14317;DHT22;7242;50.858;6.586;2022-08-19T23:29:20;21.20;99.90
14317;DHT22;7242;50.858;6.586;2022-08-19T23:35:40;20.80;99.90
14317;DHT22;7242;50.858;6.586;2022-08-19T23:38:43;20.80;99.90
14317;DHT22;7242;50.858;6.586;2022-08-19T23:44:45;20.70;99.90
14317;DHT22;7242;50.858;6.586;2022-08-19T23:50:48;20.60;99.90
14317;DHT22;7242;50.858;6.586;2022-08-19T23:53:49;20.60;99.90
14317;DHT22;7242;50.858;6.586;2022-08-19T23:56:49;20.60;99.90
